リール の空港の天気 - METARとTAF

リール空港 ( LFQQ / LIL ) - フランス リール
飛行場実況気象(Metar)
観測時間10/20 19:00 CEST (10/20 17:00 UTC)
風向・風速北北東 3m/s
視程10km以上
天気現象弱い雨
少しの雲 雲底高度 1430m
全天の4割程度の雲 雲底高度 1710m
全天を覆う雲 雲底高度 2070m
気温13℃
湿度82%
気圧1009hPa
METARLFQQ 201700Z AUTO 03006KT 9999 -RA FEW047 SCT056 OVC068 13/10 Q1009 TEMPO 3000 RA
過去の天気等 Google飛行場航空写真 Wunderground天気予報

過去48時間のMETAR

飛行場予報(TAF)
発表時間: 10/20 13:00 CEST (10/20 11:00 UTC)
予報対象時間: 20日14時 CEST ~ 21日20時 CEST
風向・風速北東 3m/s
視程6000m
なし
20日14時 CEST ~ 20日24時 CEST に一時的に
視程3000m
天気現象
全天の4割程度の雲 雲底高度 460m
全天を覆う雲 雲底高度 3050m
21日0時 CEST から
風向・風速北北東 6m/s
視程10km以上
全天の8割程度の雲 雲底高度 400m
全天を覆う雲 雲底高度 910m
21日0時 CEST ~ 21日3時 CEST に一時的に
視程2000m
天気現象
全天の8割程度の雲 雲底高度 210m
全天の8割程度の積乱雲 雲底高度 910m
21日5時 CEST ~ 21日7時 CEST に徐々に
風向・風速南 5m/s
21日3時 CEST ~ 21日20時 CEST に一時的に
視程2000m
天気現象霧雨
全天を覆う雲 雲底高度 90m
TAF LFQQ 201100Z 2012/2118 05006KT 6000 NSC
TEMPO 2012/2022 3000 RA SCT015 OVC100
FM202200 02012KT 9999 BKN013 OVC030
TEMPO 2022/2101 2000 RA BKN007 BKN030CB
BECMG 2103/2105 17010KT
TEMPO 2101/2118 2000 DZ OVC003